Time;durP1;ratioP1;P1;durP2;ratioP2;P2;SDS_P1;SDS_P2;PMS_P1;PMS_P2;Temp;Humidity;BMP_temperature;BMP_pressure;BME280_temperature;BME280_humidity;BME280_pressure;Samples;Min_cycle;Max_cycle;Signal;HPM_P1;HPM_P2
2023/05/20 00:01:30;;;;;;;;;;;;;;;25.66;30.04;100787.75;5075392;28;1214;-38
2023/05/20 00:03:56;;;;;;;;;;;;;;;25.76;30.13;100788.38;5079025;28;1112;-37
2023/05/20 00:06:22;;;;;;;;;;;;;;;25.55;30.12;100783.53;5070219;28;1155;-41
2023/05/20 00:08:47;;;;;;;;;;;;;;;25.51;30.24;100779.47;5068931;28;1925;-39
2023/05/20 00:11:13;;;;;;;;;;;;;;;25.55;30.43;100778.16;5063930;28;1198;-39
2023/05/20 00:13:38;;;;;;;;;;;;;;;25.66;30.12;100777.81;5059557;28;1217;-40
2023/05/20 00:16:04;;;;;;;;;;;;;;;25.69;30.00;100776.66;5061930;28;1469;-40
2023/05/20 00:18:31;;;;;;;;;;;;;;;25.69;30.14;100776.66;5070305;28;1203;-40
2023/05/20 00:20:57;;;;;;;;;;;;;;;25.59;30.42;100774.09;5062988;28;1653;-41
2023/05/20 00:23:22;;;;;;;;;;;;;;;25.63;30.24;100783.53;5061474;28;1226;-40
2023/05/20 00:25:48;;;;;;;;;;;;;;;25.55;30.21;100778.16;5065703;28;1167;-40
2023/05/20 00:28:13;;;;;;;;;;;;;;;25.51;30.61;100772.25;5067621;28;1985;-40
2023/05/20 00:30:40;;;;;;;;;;;;;;;25.60;30.13;100761.47;5059426;28;879;-39
2023/05/20 00:33:06;;;;;;;;;;;;;;;25.47;30.50;100770.09;5054336;28;1403;-36
2023/05/20 00:35:31;;;;;;;;;;;;;;;25.27;30.88;100773.16;5069141;28;1205;-40
2023/05/20 00:37:57;;;;;;;;;;;;;;;25.44;30.53;100774.78;5048357;28;1146;-37
2023/05/20 00:40:23;;;;;;;;;;;;;;;25.60;30.40;100773.09;5078287;28;1075;-38
2023/05/20 00:42:49;;;;;;;;;;;;;;;25.48;30.58;100769.91;5079099;28;1126;-41
2023/05/20 00:45:15;;;;;;;;;;;;;;;25.54;30.25;100776.47;5078504;28;1130;-40
2023/05/20 00:47:40;;;;;;;;;;;;;;;25.70;30.44;100769.38;5065763;28;1916;-40
2023/05/20 00:50:06;;;;;;;;;;;;;;;25.46;30.56;100769.22;5054543;28;1364;-38
2023/05/20 00:52:32;;;;;;;;;;;;;;;25.43;30.54;100767.75;5059139;28;960;-42
2023/05/20 00:54:58;;;;;;;;;;;;;;;25.41;30.67;100771.59;5076469;28;1068;-41
2023/05/20 00:57:23;;;;;;;;;;;;;;;25.46;30.62;100771.09;5073120;28;1158;-40
2023/05/20 00:59:49;;;;;;;;;;;;;;;25.51;30.16;100764.19;5058863;28;1147;-38
2023/05/20 01:02:14;;;;;;;;;;;;;;;25.37;30.68;100757.66;5064334;28;1198;-39
2023/05/20 01:04:45;;;;;;;;;;;;;;;25.50;30.83;100754.44;5078253;28;1086;-42
2023/05/20 01:07:11;;;;;;;;;;;;;;;25.45;30.68;100756.78;5063812;28;1910;-40
2023/05/20 01:09:36;;;;;;;;;;;;;;;25.47;30.68;100754.78;5071723;28;1098;-38
2023/05/20 01:12:15;;;;;;;;;;;;;;;25.24;30.90;100760.84;5078130;28;1054;-40
2023/05/20 01:15:01;;;;;;;;;;;;;;;25.46;30.69;100755.78;5064808;28;1269;-40
2023/05/20 01:17:26;;;;;;;;;;;;;;;25.28;30.83;100750.59;5066776;28;1221;-38
2023/05/20 01:19:53;;;;;;;;;;;;;;;25.30;30.89;100753.94;5053309;28;1039;-38
2023/05/20 01:22:26;;;;;;;;;;;;;;;25.67;30.29;100757.09;5064505;28;1349;-37
2023/05/20 01:24:52;;;;;;;;;;;;;;;25.37;30.69;100754.97;5060009;28;1100;-40
2023/05/20 01:27:19;;;;;;;;;;;;;;;25.47;30.61;100752.09;5048514;28;1902;-39
2023/05/20 01:29:44;;;;;;;;;;;;;;;25.41;30.37;100744.66;5043608;28;1322;-38
2023/05/20 01:32:20;;;;;;;;;;;;;;;25.37;30.68;100741.50;5050460;28;1299;-39
2023/05/20 01:34:46;;;;;;;;;;;;;;;25.51;30.50;100747.16;5064531;28;1175;-41
2023/05/20 01:37:13;;;;;;;;;;;;;;;25.57;30.59;100741.13;5070361;28;1079;-41
2023/05/20 01:39:40;;;;;;;;;;;;;;;25.50;30.63;100748.19;5059853;28;1167;-39
2023/05/20 01:42:06;;;;;;;;;;;;;;;25.51;30.26;100739.94;5077695;28;1022;-39
2023/05/20 01:44:31;;;;;;;;;;;;;;;25.56;30.40;100744.81;5037148;28;1222;-41
2023/05/20 01:46:58;;;;;;;;;;;;;;;25.62;30.11;100754.06;5051742;28;1911;-40
2023/05/20 01:49:23;;;;;;;;;;;;;;;25.57;30.50;100759.97;5042836;28;1427;-40
2023/05/20 01:51:49;;;;;;;;;;;;;;;25.47;30.56;100757.47;5077648;28;1081;-42
2023/05/20 01:54:14;;;;;;;;;;;;;;;25.53;30.43;100755.91;5061294;28;1377;-41
2023/05/20 01:56:40;;;;;;;;;;;;;;;25.64;30.20;100762.84;5057286;28;1264;-38
2023/05/20 01:59:05;;;;;;;;;;;;;;;25.38;30.49;100750.41;5046214;28;1175;-36
2023/05/20 02:01:31;;;;;;;;;;;;;;;25.42;30.31;100762.53;5047114;28;1154;-44
2023/05/20 02:03:56;;;;;;;;;;;;;;;25.35;30.49;100762.38;5058445;28;1327;-39
2023/05/20 02:06:22;;;;;;;;;;;;;;;25.45;30.48;100767.56;5066269;28;1281;-40
2023/05/20 02:08:47;;;;;;;;;;;;;;;25.37;30.51;100772.97;5071581;28;1976;-41
2023/05/20 02:11:13;;;;;;;;;;;;;;;25.44;30.33;100769.41;5051647;28;1150;-41
2023/05/20 02:13:38;;;;;;;;;;;;;;;25.41;30.41;100767.06;5053978;28;1169;-40
2023/05/20 02:16:04;;;;;;;;;;;;;;;25.34;30.60;100770.63;5051288;28;1325;-39
2023/05/20 02:18:31;;;;;;;;;;;;;;;25.45;30.24;100772.94;5059226;28;1183;-40
2023/05/20 02:21:06;;;;;;;;;;;;;;;25.32;30.70;100778.88;5046898;28;1146;-39
2023/05/20 02:23:31;;;;;;;;;;;;;;;25.48;30.28;100780.69;5045821;28;1059;-40
2023/05/20 02:25:57;;;;;;;;;;;;;;;25.48;30.50;100774.44;5059064;28;1193;-42
2023/05/20 02:28:22;;;;;;;;;;;;;;;25.56;29.96;100771.75;5052607;28;1907;-40
2023/05/20 02:30:50;;;;;;;;;;;;;;;25.52;30.51;100782.03;5051329;28;1051;-39
2023/05/20 02:33:16;;;;;;;;;;;;;;;25.46;29.99;100785.38;5058602;28;1234;-39
2023/05/20 02:35:42;;;;;;;;;;;;;;;25.53;30.57;100778.31;5063841;28;1037;-40
2023/05/20 02:38:07;;;;;;;;;;;;;;;25.38;30.72;100782.72;5076615;28;1210;-40
2023/05/20 02:40:35;;;;;;;;;;;;;;;25.54;30.38;100788.06;5045504;28;1135;-39
2023/05/20 02:43:00;;;;;;;;;;;;;;;25.53;30.35;100794.47;5076243;28;1117;-39
2023/05/20 02:45:26;;;;;;;;;;;;;;;25.56;30.11;100799.53;5045125;28;1171;-39
2023/05/20 02:47:52;;;;;;;;;;;;;;;25.84;29.97;100792.91;5058792;28;1910;-38
2023/05/20 02:50:17;;;;;;;;;;;;;;;25.65;30.98;100797.69;5058778;28;1281;-42
2023/05/20 02:52:44;;;;;;;;;;;;;;;25.56;31.62;100806.75;5076931;28;1126;-41
2023/05/20 02:55:10;;;;;;;;;;;;;;;25.35;31.90;100809.97;5057829;28;1425;-41
2023/05/20 02:57:39;;;;;;;;;;;;;;;25.31;31.83;100810.31;5045161;28;1237;-42
2023/05/20 03:00:07;;;;;;;;;;;;;;;25.18;32.04;100813.53;5044937;28;1329;-40
2023/05/20 03:02:32;;;;;;;;;;;;;;;25.32;32.26;100816.56;5037633;28;1256;-41
2023/05/20 03:04:59;;;;;;;;;;;;;;;25.38;32.07;100813.19;5057140;28;1293;-41
2023/05/20 03:07:24;;;;;;;;;;;;;;;25.23;33.28;100817.56;5046369;28;1906;-44
2023/05/20 03:09:50;;;;;;;;;;;;;;;24.42;35.60;100817.06;5049893;28;1576;-43
2023/05/20 03:12:16;;;;;;;;;;;;;;;25.05;33.67;100823.94;5058055;28;1125;-46
2023/05/20 03:14:42;;;;;;;;;;;;;;;24.47;35.26;100821.97;5050503;28;1305;-40
2023/05/20 03:17:08;;;;;;;;;;;;;;;23.84;37.19;100827.50;5051454;28;1170;-35
2023/05/20 03:19:33;;;;;;;;;;;;;;;24.04;36.90;100822.75;5039692;28;1111;-39
2023/05/20 03:21:59;;;;;;;;;;;;;;;24.21;36.47;100830.94;5051790;28;1201;-44
2023/05/20 03:24:25;;;;;;;;;;;;;;;23.60;37.61;100824.56;5046320;28;1354;-44
2023/05/20 03:26:51;;;;;;;;;;;;;;;23.33;38.40;100826.31;5043625;28;1909;-43
2023/05/20 03:29:17;;;;;;;;;;;;;;;23.61;37.99;100828.06;5051892;28;1183;-44
2023/05/20 03:31:43;;;;;;;;;;;;;;;23.55;38.02;100831.38;5050868;28;1289;-43
2023/05/20 03:34:09;;;;;;;;;;;;;;;23.69;37.93;100827.28;5044410;28;1198;-45
2023/05/20 03:36:35;;;;;;;;;;;;;;;23.93;37.18;100826.59;5045843;28;1242;-44
2023/05/20 03:39:03;;;;;;;;;;;;;;;23.64;37.54;100829.59;5056782;28;1122;-43
2023/05/20 03:41:29;;;;;;;;;;;;;;;23.74;37.47;100824.94;5045827;28;1280;-44
2023/05/20 03:43:55;;;;;;;;;;;;;;;23.64;37.53;100825.06;5057508;28;1517;-43
2023/05/20 03:46:20;;;;;;;;;;;;;;;23.97;36.35;100827.94;5068095;28;1218;-44
2023/05/20 03:48:46;;;;;;;;;;;;;;;23.96;36.57;100820.88;5045095;28;1913;-44
2023/05/20 03:51:12;;;;;;;;;;;;;;;24.40;35.81;100818.25;5031058;28;1291;-44
2023/05/20 03:53:38;;;;;;;;;;;;;;;23.75;36.88;100817.75;5050303;28;1206;-44
2023/05/20 03:56:04;;;;;;;;;;;;;;;24.69;35.03;100817.81;5056969;28;1202;-44
2023/05/20 03:58:30;;;;;;;;;;;;;;;24.94;34.46;100814.38;5062751;28;1095;-44
2023/05/20 04:00:56;;;;;;;;;;;;;;;24.40;35.22;100807.50;5057472;28;1198;-41
2023/05/20 04:03:22;;;;;;;;;;;;;;;24.02;36.12;100803.28;5057688;28;1346;-43
2023/05/20 04:05:48;;;;;;;;;;;;;;;23.87;36.48;100799.50;5057948;28;1246;-45
2023/05/20 04:08:18;;;;;;;;;;;;;;;24.13;35.67;100804.84;5056001;28;1918;-42
2023/05/20 04:10:43;;;;;;;;;;;;;;;24.17;35.96;100808.09;5063548;28;1015;-42
2023/05/20 04:13:10;;;;;;;;;;;;;;;24.28;35.20;100804.25;5062870;28;1059;-41
2023/05/20 04:15:37;;;;;;;;;;;;;;;24.33;37.09;100821.59;5049456;28;1214;-44
2023/05/20 04:18:04;;;;;;;;;;;;;;;25.29;34.14;100811.53;5061420;28;1107;-46
2023/05/20 04:20:30;;;;;;;;;;;;;;;25.62;33.32;100807.94;5070378;28;896;-21
2023/05/20 04:22:56;;;;;;;;;;;;;;;25.63;33.42;100802.41;5043466;28;1142;-21
2023/05/20 04:25:22;;;;;;;;;;;;;;;25.78;33.14;100797.16;5061407;28;1246;-22
2023/05/20 04:27:49;;;;;;;;;;;;;;;25.74;33.05;100790.41;5046288;28;1972;-23
2023/05/20 04:30:17;;;;;;;;;;;;;;;25.72;33.22;100797.84;5049554;28;1322;-21
2023/05/20 04:32:42;;;;;;;;;;;;;;;25.46;33.47;100788.09;5058917;28;1395;-20
2023/05/20 04:35:10;;;;;;;;;;;;;;;25.42;34.18;100792.16;5049666;28;1473;-20
2023/05/20 04:37:37;;;;;;;;;;;;;;;25.39;34.01;100793.31;5047498;28;1162;-20
2023/05/20 04:40:05;;;;;;;;;;;;;;;25.13;34.26;100791.66;5050147;28;1352;-20
2023/05/20 04:42:32;;;;;;;;;;;;;;;25.07;34.44;100792.34;5040914;28;1210;-21
2023/05/20 04:45:00;;;;;;;;;;;;;;;25.04;34.37;100793.50;5053017;28;1217;-20
2023/05/20 04:47:27;;;;;;;;;;;;;;;25.19;34.17;100787.47;5055199;28;1902;-20
2023/05/20 04:49:56;;;;;;;;;;;;;;;25.26;34.39;100801.06;5041353;28;1307;-20
2023/05/20 04:52:24;;;;;;;;;;;;;;;25.13;34.44;100793.50;5059276;28;1425;-20
2023/05/20 04:54:50;;;;;;;;;;;;;;;25.23;34.29;100782.56;5066232;28;1047;-20
2023/05/20 04:57:16;;;;;;;;;;;;;;;25.28;34.13;100799.03;5071701;28;1189;-20
2023/05/20 04:59:41;;;;;;;;;;;;;;;25.23;34.10;100804.09;5071272;28;1071;-20
2023/05/20 05:02:07;;;;;;;;;;;;;;;25.33;34.08;100791.31;5072106;28;1193;-20
2023/05/20 05:04:33;;;;;;;;;;;;;;;25.20;34.39;100791.81;5053468;28;1117;-20
2023/05/20 05:06:58;;;;;;;;;;;;;;;25.27;34.22;100792.00;5059630;28;1970;-20
2023/05/20 05:09:24;;;;;;;;;;;;;;;25.24;34.37;100789.63;5065601;28;822;-20
2023/05/20 05:11:50;;;;;;;;;;;;;;;25.14;34.46;100781.75;5058820;28;1400;-20
2023/05/20 05:14:16;;;;;;;;;;;;;;;25.14;34.37;100773.66;5048550;28;1376;-19
2023/05/20 05:16:42;;;;;;;;;;;;;;;25.18;34.67;100783.91;5059073;28;1265;-20
2023/05/20 05:19:08;;;;;;;;;;;;;;;25.15;34.59;100773.50;5048719;28;1202;-20
2023/05/20 05:21:36;;;;;;;;;;;;;;;25.25;34.49;100780.53;5052923;28;1941;-20
2023/05/20 05:24:02;;;;;;;;;;;;;;;25.24;34.57;100760.84;5047923;28;1324;-19
2023/05/20 05:26:28;;;;;;;;;;;;;;;25.31;34.42;100764.56;5046617;28;1123;-20
2023/05/20 05:28:54;;;;;;;;;;;;;;;25.17;34.69;100762.56;5058320;28;1988;-20
2023/05/20 05:31:20;;;;;;;;;;;;;;;25.17;35.13;100762.56;5042709;28;1115;-20
2023/05/20 05:33:45;;;;;;;;;;;;;;;25.39;34.31;100761.00;5068114;28;1032;-20
2023/05/20 05:36:11;;;;;;;;;;;;;;;25.27;34.58;100763.22;5046560;28;1226;-19
2023/05/20 05:38:36;;;;;;;;;;;;;;;25.28;34.62;100756.81;5060169;28;1194;-20
2023/05/20 05:41:02;;;;;;;;;;;;;;;25.22;35.04;100765.59;5055952;28;1202;-19
2023/05/20 05:43:28;;;;;;;;;;;;;;;25.22;34.88;100762.88;5040176;28;1232;-20
2023/05/20 05:45:54;;;;;;;;;;;;;;;25.23;34.79;100766.41;5052753;28;1150;-20
2023/05/20 05:48:21;;;;;;;;;;;;;;;25.25;34.81;100764.38;5068312;28;1969;-20
2023/05/20 05:50:46;;;;;;;;;;;;;;;25.22;34.88;100770.97;5059326;28;1142;-20
2023/05/20 05:53:14;;;;;;;;;;;;;;;25.29;35.08;100773.81;5048214;28;1361;-20
2023/05/20 05:55:42;;;;;;;;;;;;;;;25.28;34.72;100772.97;5040244;28;1158;-20
2023/05/20 05:58:08;;;;;;;;;;;;;;;25.44;34.58;100777.47;5051028;28;1332;-20
2023/05/20 06:00:33;;;;;;;;;;;;;;;25.51;34.75;100766.03;5072777;28;1067;-20
2023/05/20 06:02:59;;;;;;;;;;;;;;;26.16;33.29;100780.31;5047711;28;1226;-20
2023/05/20 06:05:35;;;;;;;;;;;;;;;25.95;34.02;100772.00;5043374;28;1320;-20
2023/05/20 06:08:01;;;;;;;;;;;;;;;25.70;34.46;100774.78;5066465;28;1989;-20
2023/05/20 06:10:26;;;;;;;;;;;;;;;25.87;33.82;100787.19;5059110;28;1087;-19
2023/05/20 06:12:53;;;;;;;;;;;;;;;25.58;34.48;100785.03;5050394;28;1180;-20
2023/05/20 06:15:19;;;;;;;;;;;;;;;25.44;35.06;100771.28;5040834;28;1234;-20
2023/05/20 06:17:44;;;;;;;;;;;;;;;25.43;34.80;100767.75;5049528;28;1351;-19
2023/05/20 06:20:11;;;;;;;;;;;;;;;25.37;35.07;100781.03;5041365;28;1220;-20
2023/05/20 06:22:36;;;;;;;;;;;;;;;25.37;34.90;100776.50;5052064;28;1438;-19
2023/05/20 06:25:02;;;;;;;;;;;;;;;25.42;34.66;100776.81;5058314;28;1102;-19
2023/05/20 06:27:29;;;;;;;;;;;;;;;25.49;34.61;100776.97;5049295;28;1979;-19
2023/05/20 06:29:54;;;;;;;;;;;;;;;25.46;34.84;100771.09;5063544;28;1154;-19
2023/05/20 06:32:20;;;;;;;;;;;;;;;25.48;34.64;100767.22;5045881;28;1405;-19
2023/05/20 06:34:45;;;;;;;;;;;;;;;25.57;34.35;100773.44;5058412;28;1169;-20
2023/05/20 06:37:11;;;;;;;;;;;;;;;25.45;34.93;100767.56;5043466;28;1237;-20
2023/05/20 06:39:36;;;;;;;;;;;;;;;25.56;34.52;100769.91;5038679;28;1098;-20
2023/05/20 06:42:02;;;;;;;;;;;;;;;25.53;34.66;100778.31;5064622;28;1063;-20
2023/05/20 06:44:29;;;;;;;;;;;;;;;25.60;34.31;100767.69;5050536;28;1313;-20
2023/05/20 06:47:18;;;;;;;;;;;;;;;25.62;34.42;100773.75;5059072;28;1906;-20
2023/05/20 06:49:46;;;;;;;;;;;;;;;25.85;34.00;100767.66;5042635;28;2028;-20
2023/05/20 06:52:11;;;;;;;;;;;;;;;25.54;34.73;100776.47;5047617;28;1220;-20
2023/05/20 06:54:40;;;;;;;;;;;;;;;25.61;34.64;100779.31;5045437;28;1182;-20
2023/05/20 06:57:06;;;;;;;;;;;;;;;25.54;34.40;100776.47;5056765;28;1253;-20
2023/05/20 06:59:32;;;;;;;;;;;;;;;25.54;34.37;100784.56;5063578;28;1143;-20
2023/05/20 07:01:58;;;;;;;;;;;;;;;25.62;34.67;100789.06;5053836;28;1127;-19
2023/05/20 07:04:23;;;;;;;;;;;;;;;25.71;34.42;100781.84;5071987;28;1269;-19
2023/05/20 07:06:49;;;;;;;;;;;;;;;25.63;34.57;100782.69;5052127;28;1982;-20
2023/05/20 07:09:15;;;;;;;;;;;;;;;25.59;34.74;100786.72;5063590;28;1226;-19
2023/05/20 07:11:40;;;;;;;;;;;;;;;25.97;34.06;100786.13;5044738;28;1295;-20
2023/05/20 07:14:07;;;;;;;;;;;;;;;25.53;34.68;100799.88;5076531;28;1142;-19
2023/05/20 07:16:33;;;;;;;;;;;;;;;25.85;33.95;100796.44;5050136;28;1276;-19
2023/05/20 07:18:59;;;;;;;;;;;;;;;26.03;33.95;100796.22;5037962;28;1253;-20
2023/05/20 07:21:25;;;;;;;;;;;;;;;26.20;33.90;100815.88;5044520;28;1145;-20
2023/05/20 07:24:10;;;;;;;;;;;;;;;25.99;33.96;100819.97;5062420;28;1028;-20
2023/05/20 07:26:36;;;;;;;;;;;;;;;26.22;33.54;100819.25;5057249;28;1201;-19
2023/05/20 07:29:02;;;;;;;;;;;;;;;26.14;33.94;100814.69;5043395;28;1906;-20
2023/05/20 07:31:28;;;;;;;;;;;;;;;25.91;34.33;100820.00;5038349;28;1118;-20
2023/05/20 07:33:53;;;;;;;;;;;;;;;25.70;34.76;100842.13;5047463;28;1199;-20
2023/05/20 07:36:19;;;;;;;;;;;;;;;25.67;34.78;100832.53;5053169;28;1171;-20
2023/05/20 07:38:48;;;;;;;;;;;;;;;26.16;33.57;100828.84;5038355;28;1165;-20
2023/05/20 07:41:14;;;;;;;;;;;;;;;26.30;33.12;100837.22;5037869;28;1910;-20
2023/05/20 07:43:39;;;;;;;;;;;;;;;26.36;33.02;100830.34;5049704;28;1220;-21
2023/05/20 07:46:05;;;;;;;;;;;;;;;26.47;32.83;100835.34;5039137;28;1314;-20
2023/05/20 07:48:31;;;;;;;;;;;;;;;26.53;32.62;100821.13;5049710;28;1976;-20
2023/05/20 07:50:58;;;;;;;;;;;;;;;26.60;32.67;100823.97;5042027;28;1416;-20
2023/05/20 07:53:24;;;;;;;;;;;;;;;26.42;32.87;100821.53;5054990;28;1238;-20
2023/05/20 07:55:50;;;;;;;;;;;;;;;26.41;33.36;100833.31;5061824;28;1133;-20
2023/05/20 07:58:16;;;;;;;;;;;;;;;26.31;33.27;100836.19;5054201;28;1378;-21
2023/05/20 08:00:42;;;;;;;;;;;;;;;26.60;32.80;100842.00;5045121;28;1149;-20
2023/05/20 08:03:09;;;;;;;;;;;;;;;26.49;32.72;100846.75;5036855;28;1278;-20
2023/05/20 08:05:48;;;;;;;;;;;;;;;26.53;33.02;100847.25;5050073;28;1141;-20
2023/05/20 08:08:15;;;;;;;;;;;;;;;26.51;32.95;100844.75;5055749;28;1918;-20
2023/05/20 08:11:03;;;;;;;;;;;;;;;26.19;33.67;100841.16;5059131;28;1192;-20
2023/05/20 08:13:30;;;;;;;;;;;;;;;25.98;33.97;100852.50;5054588;28;1214;-20
2023/05/20 08:15:56;;;;;;;;;;;;;;;26.14;33.81;100840.84;5053424;28;1333;-20
2023/05/20 08:18:23;;;;;;;;;;;;;;;26.32;33.21;100843.28;5059792;28;1277;-20
2023/05/20 08:20:49;;;;;;;;;;;;;;;26.34;33.53;100846.66;5057612;28;1118;-20
2023/05/20 08:23:15;;;;;;;;;;;;;;;26.29;33.40;100849.84;5059018;28;1282;-20
2023/05/20 08:25:40;;;;;;;;;;;;;;;26.40;33.35;100845.97;5048014;28;1398;-19
2023/05/20 08:28:07;;;;;;;;;;;;;;;26.22;33.57;100856.13;5066167;28;1987;-20
2023/05/20 08:30:35;;;;;;;;;;;;;;;26.25;33.67;100856.63;5061255;28;1266;-20
2023/05/20 08:33:01;;;;;;;;;;;;;;;26.07;34.29;100862.25;5045428;28;1158;-19
2023/05/20 08:35:28;;;;;;;;;;;;;;;25.98;33.97;100861.44;5053619;28;1187;-20
2023/05/20 08:37:53;;;;;;;;;;;;;;;25.96;34.01;100860.75;5043014;28;1207;-20
2023/05/20 08:40:19;;;;;;;;;;;;;;;25.95;34.32;100860.94;5054271;28;1146;-19
2023/05/20 08:42:45;;;;;;;;;;;;;;;25.97;34.25;100854.38;5071497;28;1175;-20
2023/05/20 08:45:12;;;;;;;;;;;;;;;26.12;33.80;100845.56;5047765;28;1143;-20
2023/05/20 08:47:40;;;;;;;;;;;;;;;26.61;32.95;100847.22;5032157;28;1918;-20
2023/05/20 08:50:05;;;;;;;;;;;;;;;26.68;32.50;100844.66;5059835;28;1124;-20
2023/05/20 08:52:31;;;;;;;;;;;;;;;26.83;32.51;100847.44;5068159;28;1063;-20
2023/05/20 08:54:56;;;;;;;;;;;;;;;26.92;32.03;100844.66;5060397;28;1172;-20
2023/05/20 08:57:22;;;;;;;;;;;;;;;26.89;32.28;100845.88;5035194;28;1225;-20
2023/05/20 08:59:47;;;;;;;;;;;;;;;26.89;32.33;100844.00;5076172;28;884;-20
2023/05/20 09:02:13;;;;;;;;;;;;;;;26.97;31.95;100842.28;5070723;28;1093;-20
2023/05/20 09:04:38;;;;;;;;;;;;;;;26.25;33.51;100845.00;5071579;28;1162;-19
2023/05/20 09:07:04;;;;;;;;;;;;;;;26.12;34.09;100843.72;5065533;28;1909;-20
2023/05/20 09:09:29;;;;;;;;;;;;;;;26.02;34.16;100840.38;5077913;28;1116;-20
2023/05/20 09:11:55;;;;;;;;;;;;;;;25.90;34.63;100843.44;5069039;28;999;-20
2023/05/20 09:14:20;;;;;;;;;;;;;;;26.06;34.46;100835.47;5078201;28;1126;-20
2023/05/20 09:16:50;;;;;;;;;;;;;;;25.94;34.83;100827.78;5068270;28;1134;-20
2023/05/20 09:19:16;;;;;;;;;;;;;;;25.80;34.87;100834.69;5065026;28;1097;-19
2023/05/20 09:21:41;;;;;;;;;;;;;;;25.83;34.93;100836.19;5075555;28;1027;-20
2023/05/20 09:24:07;;;;;;;;;;;;;;;25.74;34.75;100827.31;5064886;28;1123;-20
2023/05/20 09:26:32;;;;;;;;;;;;;;;25.84;34.35;100829.81;5064639;28;1106;-20
2023/05/20 09:28:58;;;;;;;;;;;;;;;25.77;34.79;100832.34;5067013;28;1988;-20
2023/05/20 09:31:28;;;;;;;;;;;;;;;25.68;35.03;100828.81;5062480;28;937;-20
2023/05/20 09:33:53;;;;;;;;;;;;;;;25.81;34.92;100828.28;5069193;28;1190;-19
2023/05/20 09:36:20;;;;;;;;;;;;;;;25.68;34.93;100829.69;5059782;28;1142;-20
2023/05/20 09:38:46;;;;;;;;;;;;;;;25.95;34.32;100825.91;5052631;28;1211;-20
2023/05/20 09:41:12;;;;;;;;;;;;;;;25.65;36.41;100827.31;5059011;28;1062;-20
2023/05/20 09:43:41;;;;;;;;;;;;;;;25.70;36.98;100824.13;5057817;28;1055;-20
2023/05/20 09:46:07;;;;;;;;;;;;;;;26.15;35.64;100811.00;5069292;28;1157;-20
2023/05/20 09:48:35;;;;;;;;;;;;;;;26.92;33.99;100814.97;5064795;28;1898;-20
2023/05/20 09:51:01;;;;;;;;;;;;;;;26.27;35.00;100810.63;5066361;28;1035;-19
2023/05/20 09:53:27;;;;;;;;;;;;;;;26.27;34.85;100802.53;5039895;28;1083;-20
2023/05/20 09:55:52;;;;;;;;;;;;;;;26.53;34.23;100810.34;5050252;28;1057;-19
2023/05/20 09:58:19;;;;;;;;;;;;;;;26.76;33.67;100801.41;5052936;28;1132;-20
2023/05/20 10:00:45;;;;;;;;;;;;;;;26.31;34.58;100794.94;5076227;28;1040;-19
2023/05/20 10:03:10;;;;;;;;;;;;;;;26.38;34.53;100791.38;5063411;28;1162;-20
2023/05/20 10:05:36;;;;;;;;;;;;;;;26.77;33.69;100783.38;5076641;28;1104;-20
2023/05/20 10:08:08;;;;;;;;;;;;;;;26.74;33.75;100789.13;5077424;28;1922;-19
2023/05/20 10:10:52;;;;;;;;;;;;;;;26.41;34.55;100787.47;5056870;28;1046;-20
2023/05/20 10:13:34;;;;;;;;;;;;;;;26.64;33.88;100781.28;5060529;28;1087;-19
2023/05/20 10:16:07;;;;;;;;;;;;;;;27.32;33.11;100785.13;5042284;28;1186;-20
2023/05/20 10:18:39;;;;;;;;;;;;;;;26.70;33.79;100779.72;5039122;28;1242;-20
2023/05/20 10:21:13;;;;;;;;;;;;;;;26.47;33.90;100770.59;5043512;28;1265;-20
2023/05/20 10:23:39;;;;;;;;;;;;;;;26.39;34.20;100768.75;5063315;28;896;-19
2023/05/20 10:26:05;;;;;;;;;;;;;;;26.51;33.86;100765.66;5075518;28;1208;-20
2023/05/20 10:28:35;;;;;;;;;;;;;;;26.89;33.31;100776.53;5070965;28;1906;-19
2023/05/20 10:31:00;;;;;;;;;;;;;;;26.43;33.85;100750.38;5076456;28;1269;-20
2023/05/20 10:33:29;;;;;;;;;;;;;;;26.37;34.30;100759.19;5073749;28;1210;-20
2023/05/20 10:35:58;;;;;;;;;;;;;;;26.31;34.58;100751.78;5066723;28;941;-20
2023/05/20 10:38:23;;;;;;;;;;;;;;;26.39;34.45;100749.88;5060732;28;1047;-20
2023/05/20 10:40:49;;;;;;;;;;;;;;;26.38;34.29;100748.22;5073630;28;1528;-20
2023/05/20 10:43:15;;;;;;;;;;;;;;;26.40;34.28;100748.03;5045537;28;1242;-20
2023/05/20 10:45:50;;;;;;;;;;;;;;;27.50;32.84;100755.91;5067895;28;1253;-20
2023/05/20 10:48:23;;;;;;;;;;;;;;;26.64;33.90;100747.03;5069395;28;1906;-20
2023/05/20 10:50:50;;;;;;;;;;;;;;;26.51;34.30;100738.69;5056739;28;1259;-20
2023/05/20 10:53:15;;;;;;;;;;;;;;;26.39;34.13;100732.88;5060964;28;1259;-20
2023/05/20 10:55:48;;;;;;;;;;;;;;;26.40;34.31;100729.16;5046234;28;1191;-20
2023/05/20 10:58:13;;;;;;;;;;;;;;;26.44;34.51;100732.34;5056242;28;1195;-20
2023/05/20 11:00:39;;;;;;;;;;;;;;;27.00;33.32;100723.97;5061698;28;994;-20
2023/05/20 11:03:05;;;;;;;;;;;;;;;26.67;33.51;100718.00;5064492;28;1218;-20
2023/05/20 11:05:31;;;;;;;;;;;;;;;26.60;34.20;100715.19;5062742;28;1309;-20
2023/05/20 11:08:01;;;;;;;;;;;;;;;26.53;34.02;100709.69;5062950;28;1989;-20
2023/05/20 11:10:26;;;;;;;;;;;;;;;26.43;34.26;100707.22;5062410;28;1126;-20
2023/05/20 11:12:52;;;;;;;;;;;;;;;26.41;34.32;100710.09;5056466;28;1047;-20
2023/05/20 11:15:18;;;;;;;;;;;;;;;26.41;34.56;100701.16;5055917;28;1139;-20
2023/05/20 11:17:53;;;;;;;;;;;;;;;26.62;34.43;100697.81;5055727;28;1233;-20
2023/05/20 11:20:19;;;;;;;;;;;;;;;26.88;33.68;100693.03;5069129;28;1034;-20
2023/05/20 11:22:44;;;;;;;;;;;;;;;26.59;34.02;100692.75;5055642;28;1048;-20
2023/05/20 11:25:10;;;;;;;;;;;;;;;26.52;34.33;100692.69;5070305;28;1056;-20
2023/05/20 11:27:39;;;;;;;;;;;;;;;26.58;34.13;100685.69;5062033;28;1910;-20
2023/05/20 11:30:05;;;;;;;;;;;;;;;26.52;34.52;100686.44;5062916;28;1194;-20
2023/05/20 11:32:31;;;;;;;;;;;;;;;26.52;34.22;100678.34;5061905;28;1142;-20
2023/05/20 11:34:56;;;;;;;;;;;;;;;26.59;34.12;100678.47;5062930;28;1549;-20
2023/05/20 11:37:22;;;;;;;;;;;;;;;27.46;32.96;100680.84;5062002;28;1046;-20
2023/05/20 11:39:48;;;;;;;;;;;;;;;27.10;33.51;100672.44;5055832;28;1091;-20
2023/05/20 11:42:14;;;;;;;;;;;;;;;26.71;34.22;100671.59;5051490;28;1139;-20
2023/05/20 11:44:43;;;;;;;;;;;;;;;26.85;33.85;100674.50;5062750;28;1092;-20
2023/05/20 11:47:08;;;;;;;;;;;;;;;26.68;34.44;100666.56;5062156;28;1910;-20
2023/05/20 11:49:40;;;;;;;;;;;;;;;26.72;34.13;100646.31;5075571;28;1122;-19
2023/05/20 11:52:07;;;;;;;;;;;;;;;26.86;33.56;100660.00;5061051;28;987;-19
2023/05/20 11:54:34;;;;;;;;;;;;;;;26.88;33.45;100658.78;5063911;28;1179;-20
2023/05/20 11:56:59;;;;;;;;;;;;;;;26.90;33.78;100664.84;5074982;28;1035;-20
2023/05/20 11:59:25;;;;;;;;;;;;;;;27.00;33.23;100655.63;5063729;28;1075;-20
2023/05/20 12:01:51;;;;;;;;;;;;;;;27.61;32.02;100651.94;5068392;28;1099;-20
2023/05/20 12:04:17;;;;;;;;;;;;;;;27.03;33.27;100655.28;5067440;28;1099;-20
2023/05/20 12:06:42;;;;;;;;;;;;;;;27.01;33.27;100652.78;5061876;28;1185;-20
2023/05/20 12:09:09;;;;;;;;;;;;;;;27.05;33.20;100666.75;5075137;28;1910;-20
2023/05/20 12:11:35;;;;;;;;;;;;;;;27.10;33.15;100658.09;5062026;28;1159;-20
2023/05/20 12:14:01;;;;;;;;;;;;;;;27.38;32.36;100662.84;5063427;28;1197;-20
2023/05/20 12:16:27;;;;;;;;;;;;;;;27.34;32.74;100653.47;5054588;28;988;-20
2023/05/20 12:18:52;;;;;;;;;;;;;;;27.69;31.86;100652.88;5067812;28;1076;-20
2023/05/20 12:21:18;;;;;;;;;;;;;;;27.72;32.16;100641.69;5069719;28;1043;-19
2023/05/20 12:23:43;;;;;;;;;;;;;;;27.77;31.97;100643.81;5055203;28;1152;-20
2023/05/20 12:26:09;;;;;;;;;;;;;;;27.88;31.88;100659.53;5073859;28;1158;-20
2023/05/20 12:28:35;;;;;;;;;;;;;;;27.56;32.48;100651.66;5067213;28;1977;-19
2023/05/20 12:31:00;;;;;;;;;;;;;;;27.45;32.52;100652.97;5068221;28;1087;-19
2023/05/20 12:33:26;;;;;;;;;;;;;;;27.42;32.89;100650.66;5063190;28;1007;-19
2023/05/20 12:35:51;;;;;;;;;;;;;;;27.29;33.03;100643.22;5078435;28;1097;-20
2023/05/20 12:38:17;;;;;;;;;;;;;;;27.41;32.42;100645.44;5074934;28;958;-20
2023/05/20 12:40:42;;;;;;;;;;;;;;;27.41;32.58;100637.34;5060385;28;1047;-20
2023/05/20 12:43:08;;;;;;;;;;;;;;;27.53;32.24;100654.72;5070653;28;1560;-19
2023/05/20 12:45:34;;;;;;;;;;;;;;;27.28;32.76;100640.72;5072903;28;1289;-20